Time;durP1;ratioP1;P1;durP2;ratioP2;P2;SDS_P1;SDS_P2;PMS_P1;PMS_P2;Temp;Humidity;BMP_temperature;BMP_pressure;BME280_temperature;BME280_humidity;BME280_pressure;Samples;Min_cycle;Max_cycle;Signal;HPM_P1;HPM_P2
2021/06/19 00:01:17;;;;;;;25.57;22.77;;;;;;;21.08;78.95;100803.94;4989484;28;20042;-72
2021/06/19 00:03:42;;;;;;;22.40;20.00;;;;;;;21.10;78.42;100795.56;4990496;28;20034;-72
2021/06/19 00:06:08;;;;;;;21.67;19.47;;;;;;;21.16;78.65;100800.06;4989172;28;20309;-72
2021/06/19 00:08:33;;;;;;;25.33;19.97;;;;;;;21.15;77.48;100798.41;4990369;28;20034;-72
2021/06/19 00:10:59;;;;;;;22.27;19.97;;;;;;;21.17;77.54;100796.28;4990269;28;20038;-72
2021/06/19 00:13:24;;;;;;;21.60;19.30;;;;;;;21.19;78.11;100794.16;4989340;28;20482;-72
2021/06/19 00:15:49;;;;;;;21.93;19.60;;;;;;;21.21;77.89;100792.03;4989990;28;20034;-72
2021/06/19 00:18:15;;;;;;;26.60;18.57;;;;;;;21.22;77.50;100789.09;4990110;28;20107;-72
2021/06/19 00:20:40;;;;;;;19.87;17.83;;;;;;;21.24;77.28;100791.59;4990204;28;20073;-72
2021/06/19 00:23:05;;;;;;;21.00;17.63;;;;;;;21.25;75.51;100793.22;4990135;28;20072;-72
2021/06/19 00:25:31;;;;;;;21.80;19.50;;;;;;;21.31;76.98;100792.31;4990162;28;20034;-72
2021/06/19 00:27:56;;;;;;;19.23;17.13;;;;;;;21.33;76.76;100792.06;4989735;28;20471;-72
2021/06/19 00:30:23;;;;;;;18.93;16.20;;;;;;;21.41;75.65;100808.88;4989966;28;20061;-72
2021/06/19 00:32:49;;;;;;;19.55;17.58;;;;;;;21.22;76.53;100837.97;4990014;28;20046;-72
2021/06/19 00:35:15;;;;;;;27.15;22.48;;;;;;;21.28;77.90;100857.91;4989974;28;20069;-72
2021/06/19 00:37:41;;;;;;;27.27;24.45;;;;;;;21.25;78.28;100850.25;4988697;28;20057;-72
2021/06/19 00:40:10;;;;;;;26.00;23.20;;;;;;;21.35;77.52;100842.38;4989294;28;20046;-72
2021/06/19 00:42:35;;;;;;;29.15;21.63;;;;;;;21.34;77.46;100856.19;4989798;28;20091;-72
2021/06/19 00:45:01;;;;;;;27.15;24.00;;;;;;;21.35;76.25;100834.22;4989715;28;20366;-72
2021/06/19 00:47:27;;;;;;;28.50;23.57;;;;;;;21.42;75.97;100809.72;4971879;28;20042;-72
2021/06/19 00:49:53;;;;;;;22.73;19.95;;;;;;;21.53;75.75;100852.38;4989803;28;20053;-72
2021/06/19 00:52:19;;;;;;;26.55;20.83;;;;;;;21.33;76.76;100854.50;4988837;28;20456;-72
2021/06/19 00:54:45;;;;;;;23.08;20.73;;;;;;;21.34;75.92;100840.72;4989685;28;20030;-72
2021/06/19 00:57:10;;;;;;;24.30;21.27;;;;;;;21.41;76.30;100830.63;4989305;28;20038;-72
2021/06/19 00:59:37;;;;;;;23.43;19.40;;;;;;;21.46;75.64;100847.03;4989532;28;20291;-72
2021/06/19 01:02:03;;;;;;;19.65;17.55;;;;;;;21.33;76.37;100847.22;4988669;28;20038;-72
2021/06/19 01:04:29;;;;;;;;;;;;;;;21.26;76.55;100847.31;4990099;28;20042;-72
2021/06/19 01:06:54;;;;;;;;;;;;;;;21.43;75.51;100817.63;4988719;28;19929;-72
2021/06/19 01:09:19;;;;;;;27.13;20.23;;;;;;;21.54;74.50;100829.59;4989580;28;20359;-72
2021/06/19 01:11:45;;;;;;;25.50;19.33;;;;;;;21.52;75.01;100836.28;4989482;28;20038;-72
2021/06/19 01:14:10;;;;;;;18.98;16.98;;;;;;;21.37;75.83;100828.56;4989361;28;20049;-72
2021/06/19 01:16:36;;;;;;;26.57;20.90;;;;;;;21.21;75.85;100817.31;4988199;28;20071;-72
2021/06/19 01:19:02;;;;;;;27.00;22.33;;;;;;;21.28;75.62;100831.63;4972248;28;20034;-72
2021/06/19 01:21:30;;;;;;;23.55;20.48;;;;;;;21.39;75.21;100837.31;4989237;28;20046;-72
2021/06/19 01:23:57;;;;;;;21.48;18.23;;;;;;;21.41;75.29;100838.75;4989270;28;20045;-72
2021/06/19 01:26:24;;;;;;;22.27;19.60;;;;;;;21.35;75.68;100836.09;4988871;28;20117;-72
2021/06/19 01:28:51;;;;;;;20.30;18.30;;;;;;;21.24;76.37;100835.84;4989059;28;20049;-72
2021/06/19 01:31:17;;;;;;;21.33;16.88;;;;;;;21.15;77.12;100841.84;4989186;28;20030;-72
2021/06/19 01:33:45;;;;;;;18.77;16.88;;;;;;;21.05;77.82;100845.94;4988223;28;20077;-72
2021/06/19 01:36:11;;;;;;;20.10;18.08;;;;;;;20.99;77.91;100840.59;4988801;28;20042;-72
2021/06/19 01:38:39;;;;;;;26.70;19.58;;;;;;;20.88;77.80;100836.75;4989161;28;20371;-72
2021/06/19 01:41:04;;;;;;;24.67;19.20;;;;;;;20.82;78.54;100834.97;4988944;28;20069;-72
2021/06/19 01:43:30;;;;;;;25.63;21.75;;;;;;;20.80;78.65;100831.66;4988105;28;20463;-72
2021/06/19 01:45:55;;;;;;;21.83;19.23;;;;;;;20.86;78.41;100830.72;4988721;28;20041;-72
2021/06/19 01:48:20;;;;;;;22.13;19.83;;;;;;;20.86;78.62;100837.00;4988128;28;20041;-72
2021/06/19 01:50:46;;;;;;;22.23;20.03;;;;;;;20.75;79.23;100831.50;4988984;28;20026;-72
2021/06/19 01:53:11;;;;;;;24.27;20.30;;;;;;;20.68;79.54;100818.03;4988904;28;20448;-72
2021/06/19 01:55:37;;;;;;;23.93;21.43;;;;;;;20.64;79.72;100804.06;4988898;28;20444;-72
2021/06/19 01:58:02;;;;;;;23.58;20.45;;;;;;;20.61;79.81;100804.53;4989049;28;20469;-72
2021/06/19 02:00:30;;;;;;;22.10;19.50;;;;;;;20.70;79.51;100810.50;4992375;28;20117;-72
2021/06/19 02:02:56;;;;;;;23.80;20.35;;;;;;;20.63;79.61;100812.47;4992246;28;20471;-72
2021/06/19 02:05:22;;;;;;;24.23;19.73;;;;;;;20.49;80.81;100806.34;4991267;28;20038;-72
2021/06/19 02:07:57;;;;;;;25.42;22.67;;;;;;;20.53;80.82;100785.00;4990899;28;20162;-72
2021/06/19 02:10:28;;;;;;;24.92;22.23;;;;;;;20.65;79.83;100789.47;4992078;28;20040;-72
2021/06/19 02:12:54;;;;;;;22.08;19.77;;;;;;;20.80;79.12;100799.09;4991228;28;20042;-72
2021/06/19 02:15:20;;;;;;;22.60;20.30;;;;;;;20.68;80.32;100792.78;4975015;28;20049;-72
2021/06/19 02:17:45;;;;;;;23.02;20.67;;;;;;;20.61;80.44;100799.13;4991811;28;20183;-72
2021/06/19 02:20:13;;;;;;;23.85;21.25;;;;;;;20.55;80.90;100794.56;4991988;28;20132;-72
2021/06/19 02:22:38;;;;;;;22.17;19.95;;;;;;;20.47;81.54;100792.16;4991054;28;20061;-72
2021/06/19 02:25:07;;;;;;;22.73;20.37;;;;;;;20.44;81.62;100782.59;4991905;28;20043;-72
2021/06/19 02:27:32;;;;;;;26.48;23.75;;;;;;;20.39;81.83;100785.19;4991529;28;20301;-72
2021/06/19 02:29:58;;;;;;;23.07;20.70;;;;;;;20.37;82.07;100783.72;4990952;28;20054;-72
2021/06/19 02:32:24;;;;;;;24.25;21.58;;;;;;;20.36;81.64;100791.03;4991886;28;20034;-72
2021/06/19 02:34:50;;;;;;;22.83;20.38;;;;;;;20.33;82.10;100799.63;4974684;28;20031;-72
2021/06/19 02:37:16;;;;;;;;;;;;;;;20.31;82.48;100795.47;4991003;28;20125;-72
2021/06/19 02:39:41;;;;;;;24.98;21.58;;;;;;;20.35;82.57;100794.00;4991625;28;20001;-72
2021/06/19 02:42:07;;;;;;;29.63;26.43;;;;;;;20.33;82.58;100796.09;4991642;28;20038;-72
2021/06/19 02:44:32;;;;;;;33.22;27.85;;;;;;;20.23;83.24;100783.88;4990745;28;20179;-72
2021/06/19 02:46:57;;;;;;;33.33;27.43;;;;;;;20.21;83.98;100775.16;4990346;28;20062;-72
2021/06/19 02:49:23;;;;;;;31.30;28.00;;;;;;;20.24;82.94;100782.81;4990799;28;20038;-72
2021/06/19 02:51:48;;;;;;;27.70;24.87;;;;;;;20.20;83.12;100780.78;4991631;28;20057;-71
2021/06/19 02:54:13;;;;;;;28.10;25.30;;;;;;;20.17;83.51;100792.91;4991397;28;20064;-72
2021/06/19 02:56:39;;;;;;;29.67;25.33;;;;;;;20.14;83.36;100784.41;4990321;28;20027;-72
2021/06/19 02:59:04;;;;;;;32.83;26.07;;;;;;;20.09;83.52;100786.94;4991422;28;20046;-72
2021/06/19 03:01:29;;;;;;;29.30;25.30;;;;;;;20.06;83.81;100773.84;4990534;28;20133;-72
2021/06/19 03:03:55;;;;;;;27.63;22.97;;;;;;;20.05;84.16;100785.75;4990564;28;20045;-72
2021/06/19 03:06:20;;;;;;;26.53;23.73;;;;;;;20.07;84.05;100791.78;4990060;28;20050;-72
2021/06/19 03:08:45;;;;;;;27.23;23.80;;;;;;;20.03;84.09;100783.25;4973734;28;20048;-72
2021/06/19 03:11:11;;;;;;;28.37;25.47;;;;;;;20.05;83.80;100785.75;4991289;28;20068;-72
2021/06/19 03:13:36;;;;;;;31.10;25.20;;;;;;;20.03;84.21;100781.38;4991276;28;20038;-72
2021/06/19 03:16:02;;;;;;;29.50;24.73;;;;;;;20.03;84.01;100788.69;4990063;28;20039;-72
2021/06/19 03:18:28;;;;;;;28.63;25.73;;;;;;;20.02;84.19;100787.03;4991207;28;20514;-72
2021/06/19 03:20:53;;;;;;;27.45;24.52;;;;;;;20.00;84.57;100784.53;4990256;28;20124;-72
2021/06/19 03:23:18;;;;;;;29.13;26.17;;;;;;;20.03;84.21;100794.09;4991002;28;20075;-72
2021/06/19 03:25:44;;;;;;;30.30;25.70;;;;;;;20.00;85.49;100797.28;4990178;28;20363;-72
2021/06/19 03:28:14;;;;;;;29.47;26.50;;;;;;;20.06;85.56;100801.78;4973600;28;20061;-71
2021/06/19 03:30:43;;;;;;;29.15;25.92;;;;;;;20.13;85.11;100801.72;4990967;28;20034;-71
2021/06/19 03:33:10;;;;;;;30.10;27.05;;;;;;;20.18;85.17;100804.56;4973749;28;20042;-72
2021/06/19 03:35:35;;;;;;;32.58;29.38;;;;;;;20.24;85.22;100801.78;4990793;28;20042;-72
2021/06/19 03:38:01;;;;;;;35.30;30.88;;;;;;;20.27;85.29;100800.50;4989588;28;20034;-72
2021/06/19 03:40:28;;;;;;;40.90;33.33;;;;;;;20.31;85.54;100801.72;4989929;28;20038;-71
2021/06/19 03:42:55;;;;;;;35.00;29.85;;;;;;;20.37;85.51;100791.84;4990684;28;20038;-71
2021/06/19 03:45:25;;;;;;;33.83;29.38;;;;;;;20.43;85.51;100801.81;4990659;28;20456;-72
2021/06/19 03:47:53;;;;;;;35.88;31.20;;;;;;;20.49;85.39;100797.38;4989452;28;20030;-72
2021/06/19 03:50:20;;;;;;;34.30;27.45;;;;;;;20.53;85.54;100790.41;4989736;28;20066;-72
2021/06/19 03:52:45;;;;;;;33.15;29.55;;;;;;;20.57;85.03;100791.66;4990600;28;20440;-72
2021/06/19 03:55:12;;;;;;;35.33;31.07;;;;;;;20.62;84.60;100795.34;4989746;28;20041;-72
2021/06/19 03:57:37;;;;;;;;;;;;;;;20.64;84.48;100797.81;4989876;28;20109;-72
2021/06/19 04:00:06;;;;;;;;;;;;;;;20.64;84.39;100795.94;4990984;28;19982;-72
2021/06/19 04:02:38;;;;;;;33.83;26.87;;;;;;;20.72;84.17;100792.09;4990629;28;19944;-72
2021/06/19 04:05:06;;;;;;;29.87;26.70;;;;;;;20.79;83.61;100800.13;4990345;28;20063;-72
2021/06/19 04:07:31;;;;;;;30.17;26.85;;;;;;;20.83;83.12;100809.47;4989971;28;20336;-72
2021/06/19 04:09:57;;;;;;;29.43;26.33;;;;;;;20.86;81.76;100803.59;4989246;28;20062;-72
2021/06/19 04:12:22;;;;;;;29.48;26.15;;;;;;;20.95;81.81;100804.94;4990391;28;20038;-72
2021/06/19 04:14:51;;;;;;;28.10;23.67;;;;;;;21.13;81.05;100812.19;4990138;28;20046;-72
2021/06/19 04:17:17;;;;;;;27.48;23.88;;;;;;;21.29;79.85;100816.16;4989782;28;20042;-72
2021/06/19 04:19:43;;;;;;;;;;;;;;;21.41;79.48;100814.31;4989406;28;20060;-72
2021/06/19 04:22:09;;;;;;;;;;;;;;;21.57;79.21;100809.28;4988550;28;20324;-72
2021/06/19 04:24:35;;;;;;;33.60;24.45;;;;;;;21.64;77.97;100818.97;4989915;28;20030;-72
2021/06/19 04:27:02;;;;;;;27.17;24.52;;;;;;;21.70;78.13;100814.47;4989647;28;20045;-72
2021/06/19 04:29:30;;;;;;;28.17;24.38;;;;;;;21.49;77.19;100800.41;4989962;28;20129;-72
2021/06/19 04:31:56;;;;;;;28.80;22.85;;;;;;;21.45;76.54;100806.56;4988934;28;20121;-72
2021/06/19 04:34:22;;;;;;;29.02;23.42;;;;;;;21.44;76.66;100811.13;4988876;28;20141;-72
2021/06/19 04:36:48;;;;;;;24.85;21.88;;;;;;;21.46;76.66;100819.88;4989581;28;20041;-72
2021/06/19 04:39:13;;;;;;;26.45;22.77;;;;;;;21.59;76.12;100815.31;4989825;28;20064;-72
2021/06/19 04:47:00;;;;;;;25.00;21.65;;;;;;;21.92;74.84;100822.91;4989338;28;20031;-72
2021/06/19 04:49:26;;;;;;;23.37;21.07;;;;;;;21.92;74.31;100820.19;4988633;28;20558;-72
2021/06/19 04:51:51;;;;;;;24.87;21.60;;;;;;;22.11;73.72;100827.16;4989564;28;20349;-72
2021/06/19 04:54:16;;;;;;;29.83;22.17;;;;;;;21.85;75.27;100819.47;4989521;28;20401;-72
2021/06/19 04:56:42;;;;;;;28.50;21.47;;;;;;;21.96;74.55;100821.38;4988249;28;20406;-72
2021/06/19 04:59:07;;;;;;;24.90;22.33;;;;;;;21.90;74.73;100828.56;4989355;28;20285;-72
2021/06/19 05:01:33;;;;;;;24.57;21.60;;;;;;;21.98;74.59;100827.38;4989516;28;20133;-72
2021/06/19 05:04:01;;;;;;;24.77;20.67;;;;;;;21.99;75.15;100830.94;4989477;28;20054;-72
2021/06/19 05:06:29;;;;;;;27.25;20.80;;;;;;;21.97;75.07;100830.34;4989015;28;20046;-72
2021/06/19 05:08:55;;;;;;;21.77;18.58;;;;;;;22.11;74.94;100831.75;4988345;28;20045;-72
2021/06/19 05:11:21;;;;;;;23.50;21.10;;;;;;;22.18;74.27;100832.47;4988402;28;20050;-72
2021/06/19 05:13:46;;;;;;;22.50;19.77;;;;;;;22.25;74.17;100851.41;4972102;28;20049;-72
2021/06/19 05:16:13;;;;;;;22.23;20.00;;;;;;;22.16;74.75;100840.03;4989089;28;20041;-72
2021/06/19 05:18:38;;;;;;;24.73;20.95;;;;;;;22.19;74.27;100844.97;4988461;28;20107;-72
2021/06/19 05:21:04;;;;;;;23.83;21.30;;;;;;;22.16;73.43;100855.53;4988382;28;20050;-72
2021/06/19 05:23:29;;;;;;;23.10;20.63;;;;;;;22.11;74.40;100846.19;4989383;28;20038;-72
2021/06/19 05:25:54;;;;;;;28.20;20.93;;;;;;;22.14;74.28;100850.31;4988906;28;20034;-72
2021/06/19 05:28:20;;;;;;;24.00;18.93;;;;;;;22.36;73.88;100849.72;4989096;28;20056;-72
2021/06/19 05:30:45;;;;;;;31.20;21.63;;;;;;;22.25;73.98;100841.38;4988240;28;20150;-72
2021/06/19 05:33:10;;;;;;;24.97;20.33;;;;;;;22.36;73.90;100844.28;4988032;28;20049;-72
2021/06/19 05:35:36;;;;;;;22.27;20.10;;;;;;;22.72;73.06;100846.72;4989030;28;20038;-73
2021/06/19 05:38:01;;;;;;;24.07;20.53;;;;;;;22.98;72.13;100847.22;4988063;28;20106;-73
2021/06/19 05:40:26;;;;;;;24.57;18.97;;;;;;;23.54;70.72;100840.13;4988108;28;20129;-72
2021/06/19 05:42:53;;;;;;;26.87;20.50;;;;;;;24.41;67.05;100838.75;4988909;28;20035;-72
2021/06/19 05:45:18;;;;;;;22.52;17.10;;;;;;;25.49;63.54;100834.53;4988981;28;20042;-73
2021/06/19 05:47:44;;;;;;;21.43;19.00;;;;;;;25.09;63.25;100846.69;4988779;28;20513;-73
2021/06/19 05:50:10;;;;;;;19.38;17.48;;;;;;;24.80;64.01;100849.63;4988834;28;20053;-72
2021/06/19 05:52:35;;;;;;;20.67;18.27;;;;;;;24.54;65.04;100853.16;4988789;28;20053;-73
2021/06/19 05:55:00;;;;;;;23.77;19.83;;;;;;;24.12;66.34;100846.25;4987739;28;20034;-72
2021/06/19 05:57:26;;;;;;;18.58;16.80;;;;;;;24.35;66.22;100856.13;4986817;28;20034;-72
2021/06/19 05:59:51;;;;;;;25.50;21.00;;;;;;;24.04;66.83;100852.13;4987059;28;20070;-72
2021/06/19 06:02:16;;;;;;;20.80;18.60;;;;;;;23.99;66.77;100855.59;4986093;28;20062;-73
2021/06/19 06:04:42;;;;;;;21.73;19.53;;;;;;;24.16;67.01;100854.75;4986917;28;20037;-72
2021/06/19 06:07:07;;;;;;;26.50;20.20;;;;;;;23.80;67.83;100852.28;4985770;28;20072;-72
2021/06/19 06:09:33;;;;;;;28.83;21.63;;;;;;;24.19;67.29;100865.19;4969839;28;20099;-72
2021/06/19 06:11:58;;;;;;;23.17;20.77;;;;;;;24.46;66.15;100873.44;4988051;28;20041;-72
2021/06/19 06:14:24;;;;;;;23.47;19.83;;;;;;;24.67;65.52;100868.31;4971311;28;20521;-72
2021/06/19 06:16:49;;;;;;;25.83;19.63;;;;;;;24.48;66.61;100874.06;4987389;28;20041;-73
2021/06/19 06:19:16;;;;;;;26.97;20.27;;;;;;;24.88;65.57;100872.13;4988554;28;20034;-72
2021/06/19 06:21:42;;;;;;;25.08;21.15;;;;;;;24.28;67.28;100881.91;4988202;28;20367;-72
2021/06/19 06:24:07;;;;;;;22.90;20.50;;;;;;;24.02;69.05;100882.38;4987651;28;20080;-72
2021/06/19 06:26:33;;;;;;;21.92;18.88;;;;;;;24.22;68.53;100879.13;4988009;28;20297;-73
2021/06/19 06:28:58;;;;;;;23.00;20.47;;;;;;;24.45;67.82;100885.47;4971260;28;20438;-73
2021/06/19 06:31:23;;;;;;;24.03;20.63;;;;;;;24.75;66.83;100881.53;4988336;28;20038;-73
2021/06/19 06:33:49;;;;;;;25.63;19.97;;;;;;;24.81;67.91;100877.75;4971180;28;20065;-72
2021/06/19 06:36:14;;;;;;;24.92;19.58;;;;;;;25.88;63.92;100880.84;4987094;28;20076;-73
2021/06/19 06:38:40;;;;;;;22.83;19.40;;;;;;;26.78;60.42;100880.84;4988175;28;20043;-73
2021/06/19 06:41:05;;;;;;;20.53;18.33;;;;;;;27.32;59.18;100888.75;4970947;28;20042;-73
2021/06/19 06:43:30;;;;;;;26.67;20.97;;;;;;;27.19;58.43;100894.69;4988124;28;20722;-73
2021/06/19 06:45:56;;;;;;;20.85;18.52;;;;;;;27.57;58.13;100887.13;4991098;28;20522;-73
2021/06/19 06:48:21;;;;;;;22.77;20.53;;;;;;;26.82;59.76;100889.38;4990648;28;20152;-73
2021/06/19 06:50:47;;;;;;;21.48;19.30;;;;;;;27.54;57.90;100884.94;4991475;28;20289;-73
2021/06/19 06:53:12;;;;;;;27.85;21.35;;;;;;;27.84;57.31;100881.41;4990109;28;20066;-72
2021/06/19 06:55:37;;;;;;;23.73;21.33;;;;;;;27.32;58.03;100893.38;4991013;28;20107;-72
2021/06/19 06:58:03;;;;;;;30.00;23.80;;;;;;;26.17;61.56;100886.78;4990523;28;20044;-72
2021/06/19 07:00:28;;;;;;;24.73;21.03;;;;;;;25.46;64.37;100892.47;4988976;28;20390;-73
2021/06/19 07:02:54;;;;;;;24.67;21.75;;;;;;;25.27;65.59;100883.78;4990640;28;20039;-73
2021/06/19 07:05:19;;;;;;;27.67;22.50;;;;;;;25.52;65.72;100885.13;4989933;28;20104;-73
2021/06/19 07:07:45;;;;;;;25.73;22.77;;;;;;;26.15;62.96;100882.66;4973701;28;20034;-73
2021/06/19 07:10:12;;;;;;;23.20;19.75;;;;;;;26.73;61.95;100894.53;4991117;28;20303;-72
2021/06/19 07:12:42;;;;;;;24.52;20.92;;;;;;;27.13;60.67;100891.09;4989967;28;20053;-72
2021/06/19 07:15:08;;;;;;;23.27;19.52;;;;;;;28.07;57.94;100885.50;4990108;28;20053;-73
2021/06/19 07:17:33;;;;;;;;;;;;;;;28.15;58.00;100890.44;4990216;28;20043;-72
2021/06/19 07:19:59;;;;;;;22.63;19.00;;;;;;;28.57;57.48;100881.03;4991054;28;19913;-73
2021/06/19 07:22:24;;;;;;;20.13;17.17;;;;;;;28.94;56.27;100885.28;4990939;28;20046;-72
2021/06/19 07:24:49;;;;;;;24.83;18.83;;;;;;;29.10;54.96;100876.97;4973851;28;20292;-73
2021/06/19 07:27:15;;;;;;;21.73;18.88;;;;;;;29.23;54.16;100876.34;4989551;28;20463;-73
2021/06/19 07:29:41;;;;;;;20.55;17.85;;;;;;;29.04;54.62;100873.41;4990931;28;20046;-73
2021/06/19 07:32:07;;;;;;;19.70;17.60;;;;;;;29.59;53.96;100881.59;4990704;28;20034;-73
2021/06/19 07:34:32;;;;;;;23.42;16.48;;;;;;;29.70;54.20;100877.69;4989917;28;20041;-73
2021/06/19 07:36:58;;;;;;;21.58;18.08;;;;;;;30.21;52.35;100891.00;4990211;28;20046;-72
2021/06/19 07:39:23;;;;;;;;;;;;;;;30.62;51.81;100896.06;4974044;28;20100;-73
2021/06/19 07:41:48;;;;;;;19.60;16.10;;;;;;;31.06;49.98;100902.44;4989497;28;19929;-73
2021/06/19 07:44:14;;;;;;;19.35;15.77;;;;;;;31.22;47.99;100906.63;4989449;28;20042;-73
2021/06/19 07:46:40;;;;;;;;;;;;;;;30.82;48.84;100905.22;4989965;28;20046;-73
2021/06/19 07:49:05;;;;;;;17.05;14.82;;;;;;;30.45;50.90;100899.28;4990203;28;19914;-73
2021/06/19 07:51:31;;;;;;;;;;;;;;;30.91;49.14;100904.28;4990513;28;20697;-73
2021/06/19 07:53:56;;;;;;;16.33;13.07;;;;;;;31.03;48.55;100912.13;4989199;28;19926;-73
2021/06/19 07:56:21;;;;;;;;;;;;;;;30.25;49.84;100899.47;4988102;28;20033;-73
2021/06/19 07:58:47;;;;;;;14.33;10.67;;;;;;;30.64;48.16;100910.38;4990099;28;20040;-73
2021/06/19 08:01:12;;;;;;;;;;;;;;;30.29;48.13;100912.41;4989211;28;20739;-73
2021/06/19 08:03:37;;;;;;;10.33;9.33;;;;;;;30.65;46.34;100903.75;4989825;28;19929;-73
2021/06/19 08:06:03;;;;;;;;;;;;;;;30.61;46.28;100918.41;4990307;28;20371;-73
2021/06/19 08:08:28;;;;;;;12.07;9.47;;;;;;;30.32;46.77;100907.44;4989139;28;20027;-73
2021/06/19 08:10:53;;;;;;;;;;;;;;;29.97;45.72;100912.97;4989524;28;20030;-73
2021/06/19 08:13:19;;;;;;;8.80;6.88;;;;;;;30.46;45.93;100911.13;4989157;28;19967;-73
2021/06/19 08:15:45;;;;;;;;;;;;;;;30.04;44.88;100910.69;4989417;28;20034;-73
2021/06/19 08:18:10;;;;;;;10.73;6.78;;;;;;;30.56;43.64;100902.78;4988587;28;19913;-73
2021/06/19 08:20:35;;;;;;;;;;;;;;;31.04;44.66;100908.25;4990401;28;20421;-73
2021/06/19 08:23:01;;;;;;;7.87;6.33;;;;;;;30.47;44.39;100904.53;4989965;28;20296;-73
2021/06/19 08:25:27;;;;;;;7.72;6.82;;;;;;;31.00;44.43;100909.97;4989970;28;20038;-73
2021/06/19 08:27:53;;;;;;;;;;;;;;;30.95;43.59;100909.22;4990081;28;20240;-73
2021/06/19 08:30:18;;;;;;;11.02;6.82;;;;;;;30.95;45.25;100912.78;4989942;28;20025;-73
2021/06/19 08:32:44;;;;;;;;;;;;;;;30.74;42.91;100908.63;4989419;28;20370;-73
2021/06/19 08:35:09;;;;;;;;;;;;;;;31.16;43.60;100916.09;4990267;28;19924;-73
2021/06/19 08:37:35;;;;;;;9.00;6.57;;;;;;;31.02;44.31;100904.16;4989049;28;20362;-73
2021/06/19 08:40:00;;;;;;;;;;;;;;;31.70;43.29;100913.94;4988553;28;20034;-73
2021/06/19 08:42:26;;;;;;;7.75;6.35;;;;;;;31.78;43.34;100913.28;4988431;28;19924;-73
2021/06/19 08:44:52;;;;;;;;;;;;;;;31.88;42.65;100912.28;4989926;28;20091;-73
2021/06/19 08:47:18;;;;;;;5.65;5.07;;;;;;;31.42;43.26;100913.00;4988959;28;19983;-73
2021/06/19 08:49:48;;;;;;;7.10;5.45;;;;;;;31.45;43.91;100917.94;4979073;28;20059;-73
2021/06/19 08:52:14;;;;;;;7.65;5.30;;;;;;;31.80;42.61;100919.31;4988609;28;20658;-73
2021/06/19 08:54:39;;;;;;;;;;;;;;;31.87;40.49;100916.97;4989692;28;20034;-74
2021/06/19 08:57:06;;;;;;;7.35;4.93;;;;;;;31.26;41.58;100909.63;4988281;28;19961;-73
2021/06/19 08:59:31;;;;;;;6.03;5.35;;;;;;;31.38;41.98;100917.47;4972246;28;20044;-73
2021/06/19 09:01:56;;;;;;;;;;;;;;;31.21;42.07;100918.78;4988915;28;20109;-73
2021/06/19 09:04:21;;;;;;;10.30;5.20;;;;;;;31.24;42.65;100914.63;4988507;28;19924;-73
2021/06/19 09:06:47;;;;;;;;;;;;;;;31.34;42.50;100915.28;4988019;28;20614;-73
2021/06/19 09:09:15;;;;;;;8.13;6.17;;;;;;;31.29;42.14;100920.06;4987376;28;20548;-73
2021/06/19 09:11:46;;;;;;;8.60;5.50;;;;;;;31.58;42.60;100919.09;4989021;28;20071;-74
2021/06/19 09:14:14;;;;;;;9.63;5.53;;;;;;;31.00;43.84;100920.16;4988003;28;20479;-73
2021/06/19 09:16:41;;;;;;;7.82;4.75;;;;;;;31.65;42.77;100925.88;4988608;28;20030;-73
2021/06/19 09:19:34;;;;;;;8.90;5.07;;;;;;;32.00;41.87;100928.41;4977786;28;20034;-73
2021/06/19 09:22:18;;;;;;;7.47;5.15;;;;;;;32.41;41.28;100933.19;4987540;28;20137;-74
2021/06/19 09:24:46;;;;;;;9.32;4.72;;;;;;;32.60;40.78;100939.47;4988374;28;20045;-73
2021/06/19 09:27:33;;;;;;;8.90;5.05;;;;;;;32.32;41.13;100938.59;4977182;28;20638;-74
2021/06/19 09:30:11;;;;;;;11.88;5.18;;;;;;;33.07;40.26;100937.44;4987329;28;20065;-74
2021/06/19 09:32:40;;;;;;;8.57;5.00;;;;;;;31.81;41.56;100936.69;4986462;28;20099;-73
2021/06/19 09:35:16;;;;;;;7.70;4.45;;;;;;;32.25;39.52;100939.00;4988670;28;20031;-73
2021/06/19 09:37:46;;;;;;;5.82;3.67;;;;;;;32.41;40.62;100938.72;5030616;28;20042;-73
2021/06/19 09:40:33;;;;;;;3.53;3.22;;;;;;;33.23;37.88;100940.69;4988870;28;20083;-74
2021/06/19 09:43:24;;;;;;;5.13;3.53;;;;;;;33.56;38.43;100941.31;4988693;28;20053;-73
2021/06/19 09:46:08;;;;;;;4.25;3.20;;;;;;;32.79;36.84;100944.91;4988735;28;20073;-73
2021/06/19 09:48:43;;;;;;;5.30;3.20;;;;;;;32.50;39.69;100946.03;4987650;28;20455;-74
2021/06/19 09:51:13;;;;;;;6.45;2.85;;;;;;;32.72;37.88;100950.03;4994744;28;20126;-74
2021/06/19 09:53:40;;;;;;;5.05;2.78;;;;;;;33.10;37.99;100956.16;4987546;28;20460;-73
2021/06/19 09:56:07;;;;;;;9.38;2.35;;;;;;;32.91;36.78;100964.56;4987278;28;20669;-74
2021/06/19 09:58:46;;;;;;;2.53;2.17;;;;;;;32.83;38.04;100958.91;4971240;28;20419;-73
2021/06/19 10:01:19;;;;;;;4.53;2.47;;;;;;;32.11;38.48;100963.81;4987595;28;20038;-74
2021/06/19 10:03:51;;;;;;;2.60;2.13;;;;;;;32.54;38.77;100962.81;4988243;28;20117;-74
2021/06/19 10:06:17;;;;;;;2.97;2.47;;;;;;;32.22;37.92;100972.75;4985340;28;20038;-73
2021/06/19 10:08:44;;;;;;;;;;;;;;;31.73;38.65;100974.06;4978945;28;20026;-73
2021/06/19 10:11:09;;;;;;;3.10;2.25;;;;;;;32.36;37.78;100967.25;4978460;28;19914;-73
2021/06/19 10:13:35;;;;;;;;;;;;;;;32.40;37.86;100965.50;5013301;28;20039;-73
2021/06/19 10:16:00;;;;;;;7.70;3.58;;;;;;;33.11;36.63;100968.06;4987757;28;19913;-73
2021/06/19 10:18:25;;;;;;;;;;;;;;;32.72;36.32;100972.13;4988651;28;20064;-74
2021/06/19 10:20:51;;;;;;;5.78;2.70;;;;;;;32.23;37.15;100966.09;4981241;28;19925;-73
2021/06/19 10:23:16;;;;;;;;;;;;;;;32.02;38.76;100975.84;4982374;28;20109;-74
2021/06/19 10:25:46;;;;;;;2.95;2.35;;;;;;;32.58;36.46;100972.94;4990904;28;20008;-74
2021/06/19 10:28:15;;;;;;;2.30;2.03;;;;;;;33.19;35.97;100965.38;4989773;28;20156;-73
2021/06/19 10:30:40;;;;;;;6.22;2.58;;;;;;;33.66;35.21;100972.69;4990315;28;20547;-74
2021/06/19 10:33:24;;;;;;;;;;;;;;;33.84;34.64;100969.72;4992188;28;20046;-74
2021/06/19 10:35:52;;;;;;;4.40;3.10;;;;;;;32.37;36.77;100961.41;4991210;28;19917;-73
2021/06/19 10:38:19;;;;;;;4.72;3.08;;;;;;;33.07;37.25;100967.84;4990278;28;20041;-74
2021/06/19 10:40:59;;;;;;;4.07;2.85;;;;;;;33.44;38.25;100968.72;4990223;28;20443;-73
2021/06/19 10:43:26;;;;;;;3.75;3.20;;;;;;;33.13;37.93;100968.56;4981006;28;20057;-73
2021/06/19 10:45:53;;;;;;;6.78;3.03;;;;;;;32.45;40.17;100979.25;4990016;28;20042;-73
2021/06/19 10:48:31;;;;;;;3.22;2.90;;;;;;;32.91;39.08;100978.38;4988486;28;20103;-74
2021/06/19 10:51:17;;;;;;;8.85;3.78;;;;;;;32.94;38.27;100988.84;4990366;28;20113;-73
2021/06/19 10:54:19;;;;;;;5.38;3.65;;;;;;;32.65;37.67;100977.25;4988811;28;20125;-74
2021/06/19 10:56:51;;;;;;;5.85;3.90;;;;;;;32.43;40.15;100984.25;5032543;28;20043;-74
2021/06/19 10:59:18;;;;;;;4.20;3.60;;;;;;;32.08;40.88;100988.47;4991309;28;20123;-74
2021/06/19 11:01:43;;;;;;;5.53;3.47;;;;;;;30.82;41.33;100982.38;4991140;28;20046;-73
2021/06/19 11:04:28;;;;;;;;;;;;;;;30.89;42.01;100991.16;4990797;28;20042;-73
2021/06/19 11:06:54;;;;;;;4.05;3.28;;;;;;;31.49;39.18;100980.50;5005946;28;19929;-74
2021/06/19 11:09:25;;;;;;;;;;;;;;;32.11;38.13;100993.38;4990622;28;20047;-73
2021/06/19 11:12:01;;;;;;;6.13;4.07;;;;;;;30.88;40.64;100976.56;4989899;28;19913;-74
2021/06/19 11:14:41;;;;;;;6.60;3.13;;;;;;;32.36;38.62;100997.66;4989978;28;20053;-74
2021/06/19 11:17:32;;;;;;;2.67;2.38;;;;;;;31.45;41.42;100996.00;4990917;28;20444;-74
2021/06/19 11:20:01;;;;;;;3.55;3.17;;;;;;;31.04;41.35;100998.41;4991035;28;20358;-73
2021/06/19 11:22:33;;;;;;;3.20;2.90;;;;;;;30.52;42.06;101000.88;4990585;28;20042;-74
2021/06/19 11:25:38;;;;;;;2.95;2.65;;;;;;;31.38;39.16;100997.44;4990429;28;20057;-74
2021/06/19 11:28:19;;;;;;;3.85;2.83;;;;;;;32.05;37.82;101003.66;4989607;28;20133;-74